sensor_id;sensor_type;location;lat;lon;timestamp;P1;durP1;ratioP1;P2;durP2;ratioP2
7471;SDS011;3777;48.722;8.110;2023-06-19T00:01:11;9.43;;;5.22;;
7471;SDS011;3777;48.722;8.110;2023-06-19T00:03:38;19.08;;;7.03;;
7471;SDS011;3777;48.722;8.110;2023-06-19T00:06:05;6.75;;;6.05;;
7471;SDS011;3777;48.722;8.110;2023-06-19T00:08:32;7.50;;;5.60;;
7471;SDS011;3777;48.722;8.110;2023-06-19T00:10:59;8.68;;;5.53;;
7471;SDS011;3777;48.722;8.110;2023-06-19T00:13:26;6.38;;;5.68;;
7471;SDS011;3777;48.722;8.110;2023-06-19T00:15:55;6.57;;;5.70;;
7471;SDS011;3777;48.722;8.110;2023-06-19T00:18:25;7.72;;;6.00;;
7471;SDS011;3777;48.722;8.110;2023-06-19T00:20:52;9.02;;;6.00;;
7471;SDS011;3777;48.722;8.110;2023-06-19T00:23:21;8.50;;;6.18;;
7471;SDS011;3777;48.722;8.110;2023-06-19T00:25:48;15.73;;;6.75;;
7471;SDS011;3777;48.722;8.110;2023-06-19T00:28:15;11.13;;;6.00;;
7471;SDS011;3777;48.722;8.110;2023-06-19T00:30:45;11.73;;;6.30;;
7471;SDS011;3777;48.722;8.110;2023-06-19T00:33:13;8.00;;;6.28;;
7471;SDS011;3777;48.722;8.110;2023-06-19T00:35:40;11.10;;;6.65;;
7471;SDS011;3777;48.722;8.110;2023-06-19T00:38:07;9.03;;;6.50;;
7471;SDS011;3777;48.722;8.110;2023-06-19T00:40:34;7.67;;;6.27;;
7471;SDS011;3777;48.722;8.110;2023-06-19T00:43:01;6.77;;;5.87;;
7471;SDS011;3777;48.722;8.110;2023-06-19T00:45:29;8.17;;;7.33;;
7471;SDS011;3777;48.722;8.110;2023-06-19T00:47:56;7.80;;;6.97;;
7471;SDS011;3777;48.722;8.110;2023-06-19T00:50:25;8.00;;;6.57;;
7471;SDS011;3777;48.722;8.110;2023-06-19T00:52:54;5.90;;;5.30;;
7471;SDS011;3777;48.722;8.110;2023-06-19T00:55:22;6.53;;;5.83;;
7471;SDS011;3777;48.722;8.110;2023-06-19T00:57:49;7.80;;;6.23;;
7471;SDS011;3777;48.722;8.110;2023-06-19T01:00:18;8.67;;;5.57;;
7471;SDS011;3777;48.722;8.110;2023-06-19T01:02:45;6.67;;;6.07;;
7471;SDS011;3777;48.722;8.110;2023-06-19T01:05:13;7.50;;;5.70;;
7471;SDS011;3777;48.722;8.110;2023-06-19T01:07:42;7.97;;;5.83;;
7471;SDS011;3777;48.722;8.110;2023-06-19T01:10:15;6.63;;;5.90;;
7471;SDS011;3777;48.722;8.110;2023-06-19T01:12:46;5.90;;;5.30;;
7471;SDS011;3777;48.722;8.110;2023-06-19T01:15:19;6.17;;;5.57;;
7471;SDS011;3777;48.722;8.110;2023-06-19T01:17:48;11.13;;;6.47;;
7471;SDS011;3777;48.722;8.110;2023-06-19T01:20:16;7.40;;;6.17;;
7471;SDS011;3777;48.722;8.110;2023-06-19T01:22:45;6.90;;;6.30;;
7471;SDS011;3777;48.722;8.110;2023-06-19T01:25:12;7.27;;;6.63;;
7471;SDS011;3777;48.722;8.110;2023-06-19T01:27:39;7.30;;;6.60;;
7471;SDS011;3777;48.722;8.110;2023-06-19T01:30:08;8.53;;;7.63;;
7471;SDS011;3777;48.722;8.110;2023-06-19T01:32:39;8.40;;;7.60;;
7471;SDS011;3777;48.722;8.110;2023-06-19T01:35:10;9.93;;;7.63;;
7471;SDS011;3777;48.722;8.110;2023-06-19T01:37:39;7.87;;;7.17;;
7471;SDS011;3777;48.722;8.110;2023-06-19T01:40:09;7.33;;;6.60;;
7471;SDS011;3777;48.722;8.110;2023-06-19T01:42:37;6.47;;;5.87;;
7471;SDS011;3777;48.722;8.110;2023-06-19T01:45:06;7.90;;;6.97;;
7471;SDS011;3777;48.722;8.110;2023-06-19T01:47:34;6.83;;;6.23;;
7471;SDS011;3777;48.722;8.110;2023-06-19T01:50:01;7.50;;;6.80;;
7471;SDS011;3777;48.722;8.110;2023-06-19T01:52:29;8.40;;;7.50;;
7471;SDS011;3777;48.722;8.110;2023-06-19T01:54:56;8.27;;;7.47;;
7471;SDS011;3777;48.722;8.110;2023-06-19T01:57:24;9.00;;;8.20;;
7471;SDS011;3777;48.722;8.110;2023-06-19T01:59:51;10.03;;;7.43;;
7471;SDS011;3777;48.722;8.110;2023-06-19T02:02:18;9.80;;;8.33;;
7471;SDS011;3777;48.722;8.110;2023-06-19T02:04:45;8.17;;;7.30;;
7471;SDS011;3777;48.722;8.110;2023-06-19T02:07:12;8.20;;;7.40;;
7471;SDS011;3777;48.722;8.110;2023-06-19T02:09:40;8.37;;;7.43;;
7471;SDS011;3777;48.722;8.110;2023-06-19T02:12:07;7.37;;;6.40;;
7471;SDS011;3777;48.722;8.110;2023-06-19T02:14:36;8.27;;;7.47;;
7471;SDS011;3777;48.722;8.110;2023-06-19T02:17:03;7.83;;;7.13;;
7471;SDS011;3777;48.722;8.110;2023-06-19T02:19:30;8.77;;;8.00;;
7471;SDS011;3777;48.722;8.110;2023-06-19T02:21:56;10.20;;;8.30;;
7471;SDS011;3777;48.722;8.110;2023-06-19T02:24:23;8.73;;;7.70;;
7471;SDS011;3777;48.722;8.110;2023-06-19T02:26:50;8.73;;;7.80;;
7471;SDS011;3777;48.722;8.110;2023-06-19T02:29:17;8.30;;;7.50;;
7471;SDS011;3777;48.722;8.110;2023-06-19T02:31:46;7.33;;;6.60;;
7471;SDS011;3777;48.722;8.110;2023-06-19T02:34:13;8.23;;;7.43;;
7471;SDS011;3777;48.722;8.110;2023-06-19T02:36:40;7.97;;;7.17;;
7471;SDS011;3777;48.722;8.110;2023-06-19T02:39:08;7.80;;;7.00;;
7471;SDS011;3777;48.722;8.110;2023-06-19T02:41:35;7.37;;;6.63;;
7471;SDS011;3777;48.722;8.110;2023-06-19T02:44:03;7.07;;;6.47;;
7471;SDS011;3777;48.722;8.110;2023-06-19T02:46:30;7.43;;;6.83;;
7471;SDS011;3777;48.722;8.110;2023-06-19T02:48:58;8.37;;;7.37;;
7471;SDS011;3777;48.722;8.110;2023-06-19T02:51:26;6.93;;;6.33;;
7471;SDS011;3777;48.722;8.110;2023-06-19T02:53:53;7.83;;;7.07;;
7471;SDS011;3777;48.722;8.110;2023-06-19T02:56:20;7.50;;;6.80;;
7471;SDS011;3777;48.722;8.110;2023-06-19T02:58:47;7.33;;;6.47;;
7471;SDS011;3777;48.722;8.110;2023-06-19T03:01:14;6.80;;;6.10;;
7471;SDS011;3777;48.722;8.110;2023-06-19T03:03:41;5.80;;;5.30;;
7471;SDS011;3777;48.722;8.110;2023-06-19T03:06:09;5.50;;;5.00;;
7471;SDS011;3777;48.722;8.110;2023-06-19T03:08:36;5.83;;;5.27;;
7471;SDS011;3777;48.722;8.110;2023-06-19T03:11:03;5.23;;;4.83;;
7471;SDS011;3777;48.722;8.110;2023-06-19T03:13:31;5.47;;;4.97;;
7471;SDS011;3777;48.722;8.110;2023-06-19T03:16:02;5.20;;;4.70;;
7471;SDS011;3777;48.722;8.110;2023-06-19T03:18:29;5.33;;;4.87;;
7471;SDS011;3777;48.722;8.110;2023-06-19T03:20:56;5.00;;;4.60;;
7471;SDS011;3777;48.722;8.110;2023-06-19T03:23:24;4.80;;;4.40;;
7471;SDS011;3777;48.722;8.110;2023-06-19T03:25:51;5.20;;;4.70;;
7471;SDS011;3777;48.722;8.110;2023-06-19T03:28:18;5.47;;;4.97;;
7471;SDS011;3777;48.722;8.110;2023-06-19T03:30:45;5.77;;;4.77;;
7471;SDS011;3777;48.722;8.110;2023-06-19T03:33:12;5.37;;;4.87;;
7471;SDS011;3777;48.722;8.110;2023-06-19T03:35:39;6.10;;;5.50;;
7471;SDS011;3777;48.722;8.110;2023-06-19T03:38:07;5.53;;;4.80;;
7471;SDS011;3777;48.722;8.110;2023-06-19T03:40:35;5.40;;;4.90;;
7471;SDS011;3777;48.722;8.110;2023-06-19T03:43:02;5.87;;;5.27;;
7471;SDS011;3777;48.722;8.110;2023-06-19T03:45:29;5.93;;;5.43;;
7471;SDS011;3777;48.722;8.110;2023-06-19T03:47:56;5.87;;;5.37;;
7471;SDS011;3777;48.722;8.110;2023-06-19T03:50:22;6.00;;;5.40;;
7471;SDS011;3777;48.722;8.110;2023-06-19T03:52:49;5.03;;;4.53;;
7471;SDS011;3777;48.722;8.110;2023-06-19T03:55:17;5.17;;;4.67;;
7471;SDS011;3777;48.722;8.110;2023-06-19T03:57:45;5.30;;;4.80;;
7471;SDS011;3777;48.722;8.110;2023-06-19T04:00:13;5.60;;;4.57;;
7471;SDS011;3777;48.722;8.110;2023-06-19T04:02:40;5.47;;;5.00;;
7471;SDS011;3777;48.722;8.110;2023-06-19T04:05:07;5.40;;;5.00;;
7471;SDS011;3777;48.722;8.110;2023-06-19T04:07:34;5.63;;;4.93;;
7471;SDS011;3777;48.722;8.110;2023-06-19T04:10:02;5.40;;;4.90;;
7471;SDS011;3777;48.722;8.110;2023-06-19T04:12:29;5.67;;;5.17;;
7471;SDS011;3777;48.722;8.110;2023-06-19T04:14:57;5.10;;;4.60;;
7471;SDS011;3777;48.722;8.110;2023-06-19T04:17:24;5.50;;;5.00;;
7471;SDS011;3777;48.722;8.110;2023-06-19T04:19:51;4.93;;;4.47;;
7471;SDS011;3777;48.722;8.110;2023-06-19T04:22:18;4.97;;;4.50;;
7471;SDS011;3777;48.722;8.110;2023-06-19T04:24:45;5.90;;;4.33;;
7471;SDS011;3777;48.722;8.110;2023-06-19T04:27:12;4.63;;;4.20;;
7471;SDS011;3777;48.722;8.110;2023-06-19T04:29:39;4.97;;;4.50;;
7471;SDS011;3777;48.722;8.110;2023-06-19T04:32:07;4.93;;;4.50;;
7471;SDS011;3777;48.722;8.110;2023-06-19T04:34:37;4.40;;;3.93;;
7471;SDS011;3777;48.722;8.110;2023-06-19T04:37:04;4.87;;;4.40;;
7471;SDS011;3777;48.722;8.110;2023-06-19T04:39:32;4.57;;;4.17;;
7471;SDS011;3777;48.722;8.110;2023-06-19T04:41:59;5.43;;;4.23;;
7471;SDS011;3777;48.722;8.110;2023-06-19T04:44:26;4.87;;;4.47;;
7471;SDS011;3777;48.722;8.110;2023-06-19T04:46:55;4.80;;;4.40;;
7471;SDS011;3777;48.722;8.110;2023-06-19T04:49:27;8.93;;;4.97;;
7471;SDS011;3777;48.722;8.110;2023-06-19T04:51:56;5.37;;;4.87;;
7471;SDS011;3777;48.722;8.110;2023-06-19T04:54:22;5.85;;;5.10;;
7471;SDS011;3777;48.722;8.110;2023-06-19T04:56:50;5.30;;;4.70;;
7471;SDS011;3777;48.722;8.110;2023-06-19T04:59:18;5.90;;;4.97;;
7471;SDS011;3777;48.722;8.110;2023-06-19T05:01:45;5.27;;;4.77;;
7471;SDS011;3777;48.722;8.110;2023-06-19T05:04:12;7.65;;;5.18;;
7471;SDS011;3777;48.722;8.110;2023-06-19T05:06:40;7.25;;;4.90;;
7471;SDS011;3777;48.722;8.110;2023-06-19T05:09:07;5.15;;;4.65;;
7471;SDS011;3777;48.722;8.110;2023-06-19T05:11:34;5.10;;;4.65;;
7471;SDS011;3777;48.722;8.110;2023-06-19T05:14:01;5.18;;;4.43;;
7471;SDS011;3777;48.722;8.110;2023-06-19T05:16:29;5.45;;;5.05;;
7471;SDS011;3777;48.722;8.110;2023-06-19T05:18:55;4.97;;;4.57;;
7471;SDS011;3777;48.722;8.110;2023-06-19T05:21:22;5.00;;;4.38;;
7471;SDS011;3777;48.722;8.110;2023-06-19T05:23:51;5.35;;;4.85;;
7471;SDS011;3777;48.722;8.110;2023-06-19T05:26:18;4.72;;;4.32;;
7471;SDS011;3777;48.722;8.110;2023-06-19T05:28:45;5.07;;;4.68;;
7471;SDS011;3777;48.722;8.110;2023-06-19T05:31:12;4.63;;;4.22;;
7471;SDS011;3777;48.722;8.110;2023-06-19T05:33:39;4.55;;;3.85;;
7471;SDS011;3777;48.722;8.110;2023-06-19T05:36:07;4.38;;;3.97;;
7471;SDS011;3777;48.722;8.110;2023-06-19T05:38:33;4.15;;;3.65;;
7471;SDS011;3777;48.722;8.110;2023-06-19T05:41:02;3.88;;;3.58;;
7471;SDS011;3777;48.722;8.110;2023-06-19T05:43:29;3.70;;;3.40;;
7471;SDS011;3777;48.722;8.110;2023-06-19T05:45:57;3.72;;;3.42;;
7471;SDS011;3777;48.722;8.110;2023-06-19T05:48:24;5.25;;;3.28;;
7471;SDS011;3777;48.722;8.110;2023-06-19T05:50:51;4.60;;;3.42;;
7471;SDS011;3777;48.722;8.110;2023-06-19T05:53:18;4.40;;;3.45;;
7471;SDS011;3777;48.722;8.110;2023-06-19T05:55:45;4.13;;;3.47;;
7471;SDS011;3777;48.722;8.110;2023-06-19T05:58:13;3.92;;;3.30;;
7471;SDS011;3777;48.722;8.110;2023-06-19T06:00:40;4.40;;;3.22;;
7471;SDS011;3777;48.722;8.110;2023-06-19T06:03:07;4.60;;;3.28;;
7471;SDS011;3777;48.722;8.110;2023-06-19T06:05:34;3.42;;;3.08;;
7471;SDS011;3777;48.722;8.110;2023-06-19T06:08:03;4.35;;;3.47;;
7471;SDS011;3777;48.722;8.110;2023-06-19T06:10:30;4.25;;;3.78;;
7471;SDS011;3777;48.722;8.110;2023-06-19T06:12:57;5.60;;;3.53;;
7471;SDS011;3777;48.722;8.110;2023-06-19T06:15:25;4.15;;;3.75;;
7471;SDS011;3777;48.722;8.110;2023-06-19T06:17:52;4.13;;;3.70;;
7471;SDS011;3777;48.722;8.110;2023-06-19T06:20:19;4.00;;;3.47;;
7471;SDS011;3777;48.722;8.110;2023-06-19T06:22:46;3.85;;;3.55;;
7471;SDS011;3777;48.722;8.110;2023-06-19T06:25:13;3.75;;;3.10;;
7471;SDS011;3777;48.722;8.110;2023-06-19T06:27:40;3.75;;;3.35;;
7471;SDS011;3777;48.722;8.110;2023-06-19T06:30:08;4.30;;;3.72;;
7471;SDS011;3777;48.722;8.110;2023-06-19T06:32:38;4.57;;;3.70;;
7471;SDS011;3777;48.722;8.110;2023-06-19T06:35:05;5.25;;;3.50;;
7471;SDS011;3777;48.722;8.110;2023-06-19T06:37:33;4.13;;;3.60;;
7471;SDS011;3777;48.722;8.110;2023-06-19T06:40:00;4.25;;;3.58;;
7471;SDS011;3777;48.722;8.110;2023-06-19T06:42:29;6.40;;;3.60;;
7471;SDS011;3777;48.722;8.110;2023-06-19T06:44:56;3.70;;;3.40;;
7471;SDS011;3777;48.722;8.110;2023-06-19T06:47:23;3.50;;;3.20;;
7471;SDS011;3777;48.722;8.110;2023-06-19T06:49:51;3.42;;;3.03;;
7471;SDS011;3777;48.722;8.110;2023-06-19T06:52:18;3.42;;;3.10;;
7471;SDS011;3777;48.722;8.110;2023-06-19T06:54:45;3.50;;;3.20;;
7471;SDS011;3777;48.722;8.110;2023-06-19T06:57:12;4.43;;;2.97;;
7471;SDS011;3777;48.722;8.110;2023-06-19T06:59:39;3.92;;;3.03;;
7471;SDS011;3777;48.722;8.110;2023-06-19T07:02:06;3.45;;;2.80;;
7471;SDS011;3777;48.722;8.110;2023-06-19T07:04:33;3.20;;;2.88;;
7471;SDS011;3777;48.722;8.110;2023-06-19T07:07:01;5.05;;;3.10;;
7471;SDS011;3777;48.722;8.110;2023-06-19T07:09:30;4.68;;;3.20;;
7471;SDS011;3777;48.722;8.110;2023-06-19T07:11:57;3.33;;;3.08;;
7471;SDS011;3777;48.722;8.110;2023-06-19T07:14:24;3.67;;;3.38;;
7471;SDS011;3777;48.722;8.110;2023-06-19T07:16:51;3.83;;;3.30;;
7471;SDS011;3777;48.722;8.110;2023-06-19T07:19:17;3.50;;;3.20;;
7471;SDS011;3777;48.722;8.110;2023-06-19T07:21:44;4.00;;;3.53;;
7471;SDS011;3777;48.722;8.110;2023-06-19T07:24:13;3.75;;;3.45;;
7471;SDS011;3777;48.722;8.110;2023-06-19T07:26:40;4.40;;;3.92;;
7471;SDS011;3777;48.722;8.110;2023-06-19T07:29:07;5.03;;;3.97;;
7471;SDS011;3777;48.722;8.110;2023-06-19T07:31:34;4.00;;;3.60;;
7471;SDS011;3777;48.722;8.110;2023-06-19T07:34:00;4.43;;;3.67;;
7471;SDS011;3777;48.722;8.110;2023-06-19T07:36:27;5.57;;;3.85;;
7471;SDS011;3777;48.722;8.110;2023-06-19T07:38:54;3.83;;;3.50;;
7471;SDS011;3777;48.722;8.110;2023-06-19T07:41:23;4.00;;;3.70;;
7471;SDS011;3777;48.722;8.110;2023-06-19T07:43:50;4.72;;;4.00;;
7471;SDS011;3777;48.722;8.110;2023-06-19T07:46:17;6.05;;;4.05;;
7471;SDS011;3777;48.722;8.110;2023-06-19T07:48:44;5.05;;;4.00;;
7471;SDS011;3777;48.722;8.110;2023-06-19T07:51:11;4.22;;;3.92;;
7471;SDS011;3777;48.722;8.110;2023-06-19T07:53:38;7.10;;;4.15;;
7471;SDS011;3777;48.722;8.110;2023-06-19T07:56:05;5.80;;;3.75;;
7471;SDS011;3777;48.722;8.110;2023-06-19T07:58:34;4.75;;;4.32;;
7471;SDS011;3777;48.722;8.110;2023-06-19T08:01:01;4.90;;;4.40;;
7471;SDS011;3777;48.722;8.110;2023-06-19T08:03:28;4.70;;;4.30;;
7471;SDS011;3777;48.722;8.110;2023-06-19T08:05:55;5.22;;;4.07;;
7471;SDS011;3777;48.722;8.110;2023-06-19T08:08:22;5.05;;;3.97;;
7471;SDS011;3777;48.722;8.110;2023-06-19T08:10:49;3.80;;;3.40;;
7471;SDS011;3777;48.722;8.110;2023-06-19T08:13:16;3.65;;;3.35;;
7471;SDS011;3777;48.722;8.110;2023-06-19T08:15:45;4.03;;;3.63;;
7471;SDS011;3777;48.722;8.110;2023-06-19T08:18:11;3.38;;;3.17;;
7471;SDS011;3777;48.722;8.110;2023-06-19T08:20:38;4.03;;;3.50;;
7471;SDS011;3777;48.722;8.110;2023-06-19T08:23:05;3.75;;;3.28;;
7471;SDS011;3777;48.722;8.110;2023-06-19T08:25:32;4.13;;;3.72;;
7471;SDS011;3777;48.722;8.110;2023-06-19T08:27:59;3.80;;;3.40;;
7471;SDS011;3777;48.722;8.110;2023-06-19T08:30:26;4.13;;;3.50;;
7471;SDS011;3777;48.722;8.110;2023-06-19T08:32:54;3.90;;;3.60;;
7471;SDS011;3777;48.722;8.110;2023-06-19T08:35:21;3.95;;;3.40;;
7471;SDS011;3777;48.722;8.110;2023-06-19T08:37:48;6.05;;;3.80;;
7471;SDS011;3777;48.722;8.110;2023-06-19T08:40:15;3.65;;;3.35;;
7471;SDS011;3777;48.722;8.110;2023-06-19T08:42:42;3.70;;;3.38;;
7471;SDS011;3777;48.722;8.110;2023-06-19T08:45:09;3.80;;;3.50;;
7471;SDS011;3777;48.722;8.110;2023-06-19T08:47:36;4.03;;;3.22;;
7471;SDS011;3777;48.722;8.110;2023-06-19T08:50:05;3.47;;;3.17;;
7471;SDS011;3777;48.722;8.110;2023-06-19T08:52:33;3.33;;;2.90;;
7471;SDS011;3777;48.722;8.110;2023-06-19T08:55:00;2.85;;;2.63;;
7471;SDS011;3777;48.722;8.110;2023-06-19T08:57:33;3.03;;;2.83;;
7471;SDS011;3777;48.722;8.110;2023-06-19T09:00:01;2.80;;;2.60;;
7471;SDS011;3777;48.722;8.110;2023-06-19T09:02:37;3.83;;;2.70;;
7471;SDS011;3777;48.722;8.110;2023-06-19T09:05:11;3.53;;;3.22;;
7471;SDS011;3777;48.722;8.110;2023-06-19T09:07:40;3.78;;;2.90;;
7471;SDS011;3777;48.722;8.110;2023-06-19T09:10:14;4.53;;;3.20;;
7471;SDS011;3777;48.722;8.110;2023-06-19T09:12:42;3.35;;;3.05;;
7471;SDS011;3777;48.722;8.110;2023-06-19T09:15:13;4.18;;;2.90;;
7471;SDS011;3777;48.722;8.110;2023-06-19T09:17:40;4.53;;;2.75;;
7471;SDS011;3777;48.722;8.110;2023-06-19T09:20:08;3.00;;;2.80;;
7471;SDS011;3777;48.722;8.110;2023-06-19T09:22:38;3.10;;;2.88;;
7471;SDS011;3777;48.722;8.110;2023-06-19T09:25:06;3.90;;;3.20;;
7471;SDS011;3777;48.722;8.110;2023-06-19T09:27:35;3.38;;;3.08;;
7471;SDS011;3777;48.722;8.110;2023-06-19T09:30:04;3.30;;;3.00;;
7471;SDS011;3777;48.722;8.110;2023-06-19T09:32:33;4.60;;;3.40;;
7471;SDS011;3777;48.722;8.110;2023-06-19T09:35:01;4.22;;;3.50;;
7471;SDS011;3777;48.722;8.110;2023-06-19T09:37:29;3.88;;;3.55;;
7471;SDS011;3777;48.722;8.110;2023-06-19T09:39:59;3.53;;;3.17;;
7471;SDS011;3777;48.722;8.110;2023-06-19T09:42:32;3.97;;;3.53;;
7471;SDS011;3777;48.722;8.110;2023-06-19T09:45:00;4.18;;;3.50;;
7471;SDS011;3777;48.722;8.110;2023-06-19T09:47:30;3.80;;;3.40;;
7471;SDS011;3777;48.722;8.110;2023-06-19T09:49:58;5.15;;;4.13;;
7471;SDS011;3777;48.722;8.110;2023-06-19T09:52:27;4.53;;;4.18;;
7471;SDS011;3777;48.722;8.110;2023-06-19T09:54:55;4.82;;;3.72;;
7471;SDS011;3777;48.722;8.110;2023-06-19T09:57:24;4.85;;;3.83;;
7471;SDS011;3777;48.722;8.110;2023-06-19T09:59:52;4.70;;;4.25;;
7471;SDS011;3777;48.722;8.110;2023-06-19T10:02:22;4.38;;;4.00;;
7471;SDS011;3777;48.722;8.110;2023-06-19T10:04:52;4.13;;;3.80;;
7471;SDS011;3777;48.722;8.110;2023-06-19T10:07:21;3.80;;;3.40;;
7471;SDS011;3777;48.722;8.110;2023-06-19T10:09:56;4.00;;;3.70;;
7471;SDS011;3777;48.722;8.110;2023-06-19T10:12:34;4.32;;;3.85;;
7471;SDS011;3777;48.722;8.110;2023-06-19T10:15:09;3.67;;;3.38;;
7471;SDS011;3777;48.722;8.110;2023-06-19T10:17:37;3.90;;;3.60;;
7471;SDS011;3777;48.722;8.110;2023-06-19T10:20:17;3.63;;;3.30;;
7471;SDS011;3777;48.722;8.110;2023-06-19T10:22:52;4.18;;;3.22;;
7471;SDS011;3777;48.722;8.110;2023-06-19T10:25:23;3.40;;;3.10;;
7471;SDS011;3777;48.722;8.110;2023-06-19T10:27:52;4.65;;;4.00;;
7471;SDS011;3777;48.722;8.110;2023-06-19T10:30:20;3.83;;;3.53;;
7471;SDS011;3777;48.722;8.110;2023-06-19T10:32:47;4.50;;;4.10;;
7471;SDS011;3777;48.722;8.110;2023-06-19T10:35:15;3.53;;;3.17;;
7471;SDS011;3777;48.722;8.110;2023-06-19T10:37:46;4.43;;;4.03;;
7471;SDS011;3777;48.722;8.110;2023-06-19T10:40:14;4.20;;;3.80;;
7471;SDS011;3777;48.722;8.110;2023-06-19T10:42:41;4.03;;;3.67;;
7471;SDS011;3777;48.722;8.110;2023-06-19T10:45:10;4.28;;;3.88;;
7471;SDS011;3777;48.722;8.110;2023-06-19T10:47:38;4.05;;;3.70;;
7471;SDS011;3777;48.722;8.110;2023-06-19T10:50:09;4.13;;;3.72;;
7471;SDS011;3777;48.722;8.110;2023-06-19T10:52:39;4.50;;;3.70;;
7471;SDS011;3777;48.722;8.110;2023-06-19T10:55:07;4.18;;;3.78;;
7471;SDS011;3777;48.722;8.110;2023-06-19T10:57:35;3.63;;;3.33;;
7471;SDS011;3777;48.722;8.110;2023-06-19T11:00:02;4.57;;;4.18;;
7471;SDS011;3777;48.722;8.110;2023-06-19T11:02:37;5.18;;;4.28;;
7471;SDS011;3777;48.722;8.110;2023-06-19T11:05:08;4.28;;;3.88;;
7471;SDS011;3777;48.722;8.110;2023-06-19T11:07:35;4.50;;;4.10;;
7471;SDS011;3777;48.722;8.110;2023-06-19T11:10:03;4.30;;;4.00;;
7471;SDS011;3777;48.722;8.110;2023-06-19T11:12:31;4.63;;;4.10;;
7471;SDS011;3777;48.722;8.110;2023-06-19T11:14:59;4.50;;;4.10;;
7471;SDS011;3777;48.722;8.110;2023-06-19T11:17:29;4.20;;;3.80;;
7471;SDS011;3777;48.722;8.110;2023-06-19T11:19:57;4.13;;;3.72;;
7471;SDS011;3777;48.722;8.110;2023-06-19T11:22:35;4.00;;;3.70;;
7471;SDS011;3777;48.722;8.110;2023-06-19T11:25:03;5.03;;;3.97;;
7471;SDS011;3777;48.722;8.110;2023-06-19T11:27:32;4.90;;;4.50;;
7471;SDS011;3777;48.722;8.110;2023-06-19T11:30:01;4.40;;;4.00;;
7471;SDS011;3777;48.722;8.110;2023-06-19T11:32:30;4.10;;;3.80;;
7471;SDS011;3777;48.722;8.110;2023-06-19T11:35:05;4.20;;;3.80;;
7471;SDS011;3777;48.722;8.110;2023-06-19T11:37:34;4.10;;;3.70;;
7471;SDS011;3777;48.722;8.110;2023-06-19T11:40:01;4.35;;;3.95;;
7471;SDS011;3777;48.722;8.110;2023-06-19T11:42:43;3.90;;;3.60;;
7471;SDS011;3777;48.722;8.110;2023-06-19T11:45:11;4.15;;;3.85;;
7471;SDS011;3777;48.722;8.110;2023-06-19T11:47:38;4.95;;;4.25;;
7471;SDS011;3777;48.722;8.110;2023-06-19T11:50:07;4.00;;;3.70;;
7471;SDS011;3777;48.722;8.110;2023-06-19T11:52:34;4.25;;;3.78;;
7471;SDS011;3777;48.722;8.110;2023-06-19T11:55:01;3.88;;;3.45;;
7471;SDS011;3777;48.722;8.110;2023-06-19T11:57:28;4.45;;;4.07;;
7471;SDS011;3777;48.722;8.110;2023-06-19T11:59:55;4.10;;;3.78;;
7471;SDS011;3777;48.722;8.110;2023-06-19T12:02:22;5.15;;;3.65;;
7471;SDS011;3777;48.722;8.110;2023-06-19T12:04:49;3.88;;;3.58;;
7471;SDS011;3777;48.722;8.110;2023-06-19T12:07:18;4.35;;;3.92;;
7471;SDS011;3777;48.722;8.110;2023-06-19T12:09:45;4.07;;;3.78;;
7471;SDS011;3777;48.722;8.110;2023-06-19T12:12:12;4.00;;;3.60;;
7471;SDS011;3777;48.722;8.110;2023-06-19T12:14:39;4.28;;;3.88;;
7471;SDS011;3777;48.722;8.110;2023-06-19T12:17:05;3.80;;;3.40;;
7471;SDS011;3777;48.722;8.110;2023-06-19T12:19:33;3.72;;;3.25;;
7471;SDS011;3777;48.722;8.110;2023-06-19T12:22:00;3.35;;;3.05;;
7471;SDS011;3777;48.722;8.110;2023-06-19T12:24:28;3.80;;;3.42;;
7471;SDS011;3777;48.722;8.110;2023-06-19T12:26:55;4.13;;;3.42;;
7471;SDS011;3777;48.722;8.110;2023-06-19T12:29:22;4.10;;;3.70;;
7471;SDS011;3777;48.722;8.110;2023-06-19T12:31:51;3.65;;;3.35;;
7471;SDS011;3777;48.722;8.110;2023-06-19T12:34:18;4.25;;;3.70;;
7471;SDS011;3777;48.722;8.110;2023-06-19T12:36:45;4.13;;;3.80;;
7471;SDS011;3777;48.722;8.110;2023-06-19T12:39:12;4.38;;;3.30;;
7471;SDS011;3777;48.722;8.110;2023-06-19T12:41:43;4.22;;;3.70;;
7471;SDS011;3777;48.722;8.110;2023-06-19T12:44:10;3.92;;;3.50;;
7471;SDS011;3777;48.722;8.110;2023-06-19T12:49:30;4.10;;;3.80;;
7471;SDS011;3777;48.722;8.110;2023-06-19T12:51:56;4.05;;;3.65;;
7471;SDS011;3777;48.722;8.110;2023-06-19T12:54:24;4.60;;;4.20;;
7471;SDS011;3777;48.722;8.110;2023-06-19T12:56:53;4.60;;;4.20;;
7471;SDS011;3777;48.722;8.110;2023-06-19T12:59:20;4.50;;;4.10;;
7471;SDS011;3777;48.722;8.110;2023-06-19T13:01:47;4.15;;;3.70;;
7471;SDS011;3777;48.722;8.110;2023-06-19T13:04:14;4.50;;;4.10;;
7471;SDS011;3777;48.722;8.110;2023-06-19T13:06:40;4.18;;;3.78;;
7471;SDS011;3777;48.722;8.110;2023-06-19T13:09:07;6.53;;;3.95;;
7471;SDS011;3777;48.722;8.110;2023-06-19T13:11:35;4.40;;;4.00;;
7471;SDS011;3777;48.722;8.110;2023-06-19T13:14:04;4.60;;;4.20;;
7471;SDS011;3777;48.722;8.110;2023-06-19T13:16:31;4.45;;;4.00;;
7471;SDS011;3777;48.722;8.110;2023-06-19T13:18:58;4.25;;;3.85;;
7471;SDS011;3777;48.722;8.110;2023-06-19T13:21:25;4.22;;;3.75;;
7471;SDS011;3777;48.722;8.110;2023-06-19T13:23:52;4.18;;;3.65;;
7471;SDS011;3777;48.722;8.110;2023-06-19T13:26:19;4.38;;;3.97;;
7471;SDS011;3777;48.722;8.110;2023-06-19T13:28:46;4.90;;;4.50;;
7471;SDS011;3777;48.722;8.110;2023-06-19T13:31:14;4.57;;;4.18;;
7471;SDS011;3777;48.722;8.110;2023-06-19T13:33:41;4.60;;;4.20;;
7471;SDS011;3777;48.722;8.110;2023-06-19T13:36:08;4.13;;;3.80;;
7471;SDS011;3777;48.722;8.110;2023-06-19T13:38:35;4.40;;;4.10;;
7471;SDS011;3777;48.722;8.110;2023-06-19T13:41:02;3.90;;;3.60;;
7471;SDS011;3777;48.722;8.110;2023-06-19T13:43:29;4.20;;;3.90;;
7471;SDS011;3777;48.722;8.110;2023-06-19T13:46:03;4.95;;;4.45;;
7471;SDS011;3777;48.722;8.110;2023-06-19T13:48:32;4.55;;;4.15;;
7471;SDS011;3777;48.722;8.110;2023-06-19T13:50:59;4.65;;;3.97;;
7471;SDS011;3777;48.722;8.110;2023-06-19T13:53:27;4.50;;;4.10;;
7471;SDS011;3777;48.722;8.110;2023-06-19T13:55:54;7.53;;;4.40;;
7471;SDS011;3777;48.722;8.110;2023-06-19T13:58:21;4.10;;;3.80;;
7471;SDS011;3777;48.722;8.110;2023-06-19T14:00:51;4.47;;;4.10;;
7471;SDS011;3777;48.722;8.110;2023-06-19T14:03:18;4.40;;;4.00;;
7471;SDS011;3777;48.722;8.110;2023-06-19T14:05:47;4.32;;;4.03;;
7471;SDS011;3777;48.722;8.110;2023-06-19T14:08:14;4.28;;;3.83;;
7471;SDS011;3777;48.722;8.110;2023-06-19T14:10:41;4.80;;;4.22;;
7471;SDS011;3777;48.722;8.110;2023-06-19T14:13:08;4.15;;;3.80;;
7471;SDS011;3777;48.722;8.110;2023-06-19T14:15:35;4.00;;;3.70;;
7471;SDS011;3777;48.722;8.110;2023-06-19T14:18:02;4.20;;;3.88;;
7471;SDS011;3777;48.722;8.110;2023-06-19T14:20:29;4.00;;;3.70;;
7471;SDS011;3777;48.722;8.110;2023-06-19T14:22:58;4.53;;;3.80;;
7471;SDS011;3777;48.722;8.110;2023-06-19T14:25:24;4.60;;;4.20;;
7471;SDS011;3777;48.722;8.110;2023-06-19T14:27:51;4.35;;;3.97;;
7471;SDS011;3777;48.722;8.110;2023-06-19T14:30:18;4.28;;;3.88;;
7471;SDS011;3777;48.722;8.110;2023-06-19T14:32:46;4.47;;;4.00;;
7471;SDS011;3777;48.722;8.110;2023-06-19T14:35:13;4.60;;;4.20;;
7471;SDS011;3777;48.722;8.110;2023-06-19T14:37:40;5.13;;;3.90;;
7471;SDS011;3777;48.722;8.110;2023-06-19T14:40:09;4.43;;;3.72;;
7471;SDS011;3777;48.722;8.110;2023-06-19T14:42:36;4.03;;;3.72;;
7471;SDS011;3777;48.722;8.110;2023-06-19T14:45:04;5.10;;;4.00;;
7471;SDS011;3777;48.722;8.110;2023-06-19T14:47:31;4.60;;;4.18;;
7471;SDS011;3777;48.722;8.110;2023-06-19T14:49:59;4.18;;;3.88;;
7471;SDS011;3777;48.722;8.110;2023-06-19T14:52:26;4.30;;;3.90;;
7471;SDS011;3777;48.722;8.110;2023-06-19T14:54:53;4.60;;;4.07;;
7471;SDS011;3777;48.722;8.110;2023-06-19T14:57:22;4.65;;;4.10;;
7471;SDS011;3777;48.722;8.110;2023-06-19T14:59:52;5.25;;;3.90;;
7471;SDS011;3777;48.722;8.110;2023-06-19T15:02:19;4.63;;;4.10;;
7471;SDS011;3777;48.722;8.110;2023-06-19T15:04:46;5.72;;;4.05;;
7471;SDS011;3777;48.722;8.110;2023-06-19T15:07:13;5.00;;;4.50;;
7471;SDS011;3777;48.722;8.110;2023-06-19T15:09:40;4.43;;;4.13;;
7471;SDS011;3777;48.722;8.110;2023-06-19T15:12:07;4.68;;;4.38;;
7471;SDS011;3777;48.722;8.110;2023-06-19T15:14:36;4.25;;;3.95;;
7471;SDS011;3777;48.722;8.110;2023-06-19T15:17:03;6.63;;;4.38;;
7471;SDS011;3777;48.722;8.110;2023-06-19T15:19:31;4.05;;;3.70;;
7471;SDS011;3777;48.722;8.110;2023-06-19T15:21:58;4.53;;;4.07;;